createdAt,value
2018-02-22T00:01:11.400Z,101938.72
2018-02-22T00:03:40.235Z,101946.40
2018-02-22T00:06:08.688Z,101945.19
2018-02-22T00:08:37.314Z,101944.98
2018-02-22T00:11:05.780Z,101937.20
2018-02-22T00:13:34.219Z,101936.43
2018-02-22T00:16:03.176Z,101936.41
2018-02-22T00:18:31.623Z,101939.65
2018-02-22T00:21:00.080Z,101934.80
2018-02-22T00:23:28.903Z,101941.28
2018-02-22T00:25:57.339Z,101935.42
2018-02-22T00:28:26.273Z,101932.48
2018-02-22T00:30:55.614Z,101936.36
2018-02-22T00:33:24.569Z,101931.47
2018-02-22T00:35:53.007Z,101932.30
2018-02-22T00:38:21.855Z,101931.03
2018-02-22T00:40:50.328Z,101935.61
2018-02-22T00:43:18.765Z,101933.19
2018-02-22T00:45:47.612Z,101937.63
2018-02-22T00:48:16.069Z,101929.75
2018-02-22T00:50:44.641Z,101932.84
2018-02-22T00:53:13.072Z,101929.09
2018-02-22T00:55:41.616Z,101925.13
2018-02-22T00:58:10.099Z,101924.61
2018-02-22T01:00:38.541Z,101929.02
2018-02-22T01:03:07.421Z,101931.14
2018-02-22T01:05:35.892Z,101929.71
2018-02-22T01:08:04.426Z,101931.20
2018-02-22T01:10:32.860Z,101925.81
2018-02-22T01:13:01.812Z,101925.23
2018-02-22T01:15:30.244Z,101925.75
2018-02-22T01:17:59.283Z,101935.83
2018-02-22T01:20:27.736Z,101933.52
2018-02-22T01:22:56.189Z,101937.26
2018-02-22T01:25:25.264Z,101940.29
2018-02-22T01:27:53.824Z,101937.58
2018-02-22T01:30:22.348Z,101927.17
2018-02-22T01:32:50.779Z,101930.66
2018-02-22T01:35:19.236Z,101930.18
2018-02-22T01:37:47.671Z,101932.64
2018-02-22T01:40:16.119Z,101932.97
2018-02-22T01:42:44.621Z,101936.66
2018-02-22T01:45:13.084Z,101931.19
2018-02-22T01:47:41.529Z,101927.73
2018-02-22T01:50:10.380Z,101931.34
2018-02-22T01:52:38.823Z,101932.23
2018-02-22T01:55:07.444Z,101928.66
2018-02-22T01:57:36.000Z,101932.17
2018-02-22T02:00:04.444Z,101936.56
2018-02-22T02:02:33.376Z,101931.23
2018-02-22T02:05:01.877Z,101930.33
2018-02-22T02:07:30.340Z,101932.69
2018-02-22T02:09:58.808Z,101932.69
2018-02-22T02:12:27.256Z,101929.56
2018-02-22T02:14:56.120Z,101924.98
2018-02-22T02:17:24.665Z,101923.38
2018-02-22T02:19:53.872Z,101917.05
2018-02-22T02:22:22.339Z,101917.59
2018-02-22T02:24:50.774Z,101912.72
2018-02-22T02:27:19.616Z,101916.31
2018-02-22T02:29:48.076Z,101915.48
2018-02-22T02:32:16.512Z,101913.36
2018-02-22T02:34:45.009Z,101914.58
2018-02-22T02:37:13.875Z,101913.56
2018-02-22T02:39:42.311Z,101908.07
2018-02-22T02:42:10.828Z,101909.21
2018-02-22T02:44:39.388Z,101912.19
2018-02-22T02:47:07.829Z,101909.07
2018-02-22T02:49:36.677Z,101904.27
2018-02-22T02:52:05.156Z,101904.98
2018-02-22T02:54:33.620Z,101902.36
2018-02-22T02:57:02.077Z,101902.20
2018-02-22T02:59:30.917Z,101906.69
2018-02-22T03:01:59.384Z,101907.97
2018-02-22T03:04:27.820Z,101901.59
2018-02-22T03:06:56.690Z,101904.50
2018-02-22T03:09:25.135Z,101898.82
2018-02-22T03:11:53.608Z,101895.59
2018-02-22T03:14:22.068Z,101890.22
2018-02-22T03:16:50.573Z,101893.72
2018-02-22T03:19:19.036Z,101892.59
2018-02-22T03:21:47.529Z,101896.28
2018-02-22T03:24:15.970Z,101890.42
2018-02-22T03:26:44.816Z,101888.23
2018-02-22T03:29:13.292Z,101883.30
2018-02-22T03:31:41.748Z,101882.03
2018-02-22T03:34:10.180Z,101887.08
2018-02-22T03:36:38.641Z,101886.77
2018-02-22T03:39:07.081Z,101887.23
2018-02-22T03:41:35.582Z,101889.93
2018-02-22T03:44:04.035Z,101884.25
2018-02-22T03:46:32.875Z,101887.41
2018-02-22T03:49:01.344Z,101888.88
2018-02-22T03:51:29.825Z,101889.98
2018-02-22T03:53:58.400Z,101889.29
2018-02-22T03:56:26.833Z,101893.78
2018-02-22T03:58:55.269Z,101891.67
2018-02-22T04:01:23.731Z,101889.27
2018-02-22T04:03:52.175Z,101893.37
2018-02-22T04:06:20.621Z,101886.88
2018-02-22T04:08:49.066Z,101888.41
2018-02-22T04:11:17.573Z,101901.06
2018-02-22T04:13:46.007Z,101901.86
2018-02-22T04:16:14.857Z,101901.78
2018-02-22T04:18:56.256Z,101897.21
2018-02-22T04:21:24.708Z,101897.52
2018-02-22T04:23:53.155Z,101898.83
2018-02-22T04:26:21.990Z,101898.75
2018-02-22T04:28:50.457Z,101903.19
2018-02-22T04:31:18.935Z,101907.25
2018-02-22T04:33:47.424Z,101907.65
2018-02-22T04:36:15.880Z,101902.95
2018-02-22T04:38:44.361Z,101908.53
2018-02-22T04:41:12.817Z,101911.89
2018-02-22T04:43:41.652Z,101906.61
2018-02-22T04:46:10.105Z,101914.97
2018-02-22T04:48:38.543Z,101911.75
2018-02-22T04:51:07.092Z,101918.58
2018-02-22T04:53:36.297Z,101912.49
2018-02-22T04:56:04.751Z,101913.86
2018-02-22T04:58:33.184Z,101909.89
2018-02-22T05:01:01.632Z,101910.56
2018-02-22T05:03:30.080Z,101918.67
2018-02-22T05:05:58.924Z,101916.75
2018-02-22T05:08:27.382Z,101924.55
2018-02-22T05:10:55.864Z,101920.26
2018-02-22T05:13:24.300Z,101916.23
2018-02-22T05:15:53.137Z,101917.05
2018-02-22T05:18:21.578Z,101917.47
2018-02-22T05:20:50.431Z,101918.97
2018-02-22T05:23:18.900Z,101920.81
2018-02-22T05:25:47.367Z,101919.02
2018-02-22T05:28:15.844Z,101922.95
2018-02-22T05:30:44.345Z,101924.09
2018-02-22T05:33:12.791Z,101930.23
2018-02-22T05:35:41.247Z,101921.94
2018-02-22T05:38:10.088Z,101927.08
2018-02-22T05:40:38.563Z,101921.75
2018-02-22T05:43:07.007Z,101923.69
2018-02-22T05:45:35.947Z,101924.58
2018-02-22T05:48:04.426Z,101928.58
2018-02-22T05:50:32.896Z,101924.64
2018-02-22T05:53:01.378Z,101931.89
2018-02-22T05:55:29.863Z,101924.09
2018-02-22T05:57:58.305Z,101931.28
2018-02-22T06:00:27.176Z,101928.60
2018-02-22T06:02:55.630Z,101925.70
2018-02-22T06:05:24.081Z,101922.30
2018-02-22T06:07:52.529Z,101922.13
2018-02-22T06:10:21.371Z,101913.34
2018-02-22T06:12:49.947Z,101902.94
2018-02-22T06:15:18.436Z,101913.06
2018-02-22T06:17:47.013Z,101911.73
2018-02-22T06:20:15.459Z,101914.28
2018-02-22T06:22:43.904Z,101926.92
2018-02-22T06:25:12.364Z,101929.28
2018-02-22T06:27:40.796Z,101930.50
2018-02-22T06:30:09.632Z,101938.91
2018-02-22T06:32:38.072Z,101937.65
2018-02-22T06:35:06.691Z,101931.56
2018-02-22T06:37:35.144Z,101935.39
2018-02-22T06:40:03.592Z,101937.64
2018-02-22T06:42:32.163Z,101943.56
2018-02-22T06:45:00.846Z,101940.30
2018-02-22T06:47:29.398Z,101937.67
2018-02-22T06:49:57.876Z,101930.65
2018-02-22T06:52:26.376Z,101931.70
2018-02-22T06:54:54.824Z,101929.17
2018-02-22T06:57:23.325Z,101929.01
2018-02-22T06:59:51.760Z,101928.66
2018-02-22T07:02:20.592Z,101935.98
2018-02-22T07:04:49.024Z,101937.14
2018-02-22T07:07:17.546Z,101936.22
2018-02-22T07:09:45.996Z,101929.22
2018-02-22T07:12:14.877Z,101928.90
